Time;durP1;ratioP1;P1;durP2;ratioP2;P2;SDS_P1;SDS_P2;PMS_P1;PMS_P2;Temp;Humidity;BMP_temperature;BMP_pressure;BME280_temperature;BME280_humidity;BME280_pressure;Samples;Min_cycle;Max_cycle;Signal;HPM_P1;HPM_P2
2021/12/29 00:02:20;;;;;;;1.98;1.88;;;5.70;99.90;;;;;;5138008;27;20523;-88
2021/12/29 00:04:46;;;;;;;1.73;1.63;;;5.80;99.90;;;;;;5155642;27;20039;-89
2021/12/29 00:07:12;;;;;;;1.80;1.17;;;5.80;99.90;;;;;;5136464;27;20046;-90
2021/12/29 00:09:40;;;;;;;1.85;0.90;;;5.80;99.90;;;;;;5136657;27;20062;-90
2021/12/29 00:12:07;;;;;;;1.65;1.63;;;5.80;99.90;;;;;;5137223;27;20054;-90
2021/12/29 00:14:34;;;;;;;2.63;0.85;;;5.80;99.90;;;;;;5155187;27;20043;-87
2021/12/29 00:17:00;;;;;;;2.60;2.40;;;5.80;99.90;;;;;;5136654;27;20129;-88
2021/12/29 00:19:25;;;;;;;2.75;2.65;;;5.80;99.90;;;;;;5136482;27;20138;-87
2021/12/29 00:21:51;;;;;;;0.75;0.75;;;5.80;99.90;;;;;;5136707;27;20043;-88
2021/12/29 00:24:17;;;;;;;3.72;1.05;;;5.80;99.90;;;;;;5136784;27;20462;-88
2021/12/29 00:26:43;;;;;;;0.65;0.45;;;5.80;99.90;;;;;;5136660;27;20038;-89
2021/12/29 00:29:08;;;;;;;0.43;0.43;;;5.70;99.90;;;;;;5136579;27;20042;-88
2021/12/29 00:31:34;;;;;;;2.78;1.52;;;5.80;99.90;;;;;;5136569;27;20035;-87
2021/12/29 00:34:00;;;;;;;3.80;3.50;;;5.80;99.90;;;;;;5136508;27;20046;-90
2021/12/29 00:36:26;;;;;;;5.47;3.25;;;5.80;99.90;;;;;;5136412;27;20065;-88
2021/12/29 00:38:52;;;;;;;2.35;1.55;;;5.80;99.90;;;;;;5136501;27;20046;-88
2021/12/29 00:41:18;;;;;;;0.17;0.17;;;5.90;99.90;;;;;;5119470;27;20054;-87
2021/12/29 00:43:44;;;;;;;0.73;0.73;;;5.80;99.90;;;;;;5136988;27;20049;-88
2021/12/29 00:46:12;;;;;;;2.40;2.20;;;5.70;99.90;;;;;;5136280;27;20053;-89
2021/12/29 00:48:43;;;;;;;9.18;3.17;;;5.80;99.90;;;;;;5136792;27;20057;-89
2021/12/29 00:51:10;;;;;;;0.67;0.67;;;5.70;99.90;;;;;;5155173;27;20089;-88
2021/12/29 00:53:36;;;;;;;0.57;0.57;;;5.70;99.90;;;;;;5137423;27;20085;-88
2021/12/29 00:56:03;;;;;;;0.45;0.45;;;5.80;99.90;;;;;;5137345;27;20082;-87
2021/12/29 00:58:29;;;;;;;0.50;0.50;;;5.80;99.90;;;;;;5136280;27;20043;-87
2021/12/29 01:00:56;;;;;;;0.20;0.20;;;5.90;99.90;;;;;;5136061;27;20046;-88
2021/12/29 01:03:22;;;;;;;1.95;1.00;;;5.90;99.90;;;;;;5137307;27;20101;-86
2021/12/29 01:05:48;;;;;;;4.15;3.75;;;5.90;99.90;;;;;;5139544;27;20039;-86
2021/12/29 01:08:14;;;;;;;5.50;2.17;;;5.90;99.90;;;;;;5139774;27;20050;-87
2021/12/29 01:10:41;;;;;;;3.08;1.27;;;5.90;99.90;;;;;;5139709;27;20130;-89
2021/12/29 01:13:09;;;;;;;4.70;1.33;;;5.80;99.90;;;;;;5139811;27;20493;-87
2021/12/29 01:15:56;;;;;;;2.83;2.63;;;5.90;99.90;;;;;;5139899;27;20045;-88
2021/12/29 01:18:23;;;;;;;7.63;2.05;;;5.90;99.90;;;;;;5139705;27;20095;-87
2021/12/29 01:24:31;;;;;;;1.83;1.05;;;5.90;99.90;;;;;;5158244;27;20141;-89
2021/12/29 01:26:57;;;;;;;1.13;1.08;;;5.80;99.90;;;;;;5139468;27;20130;-87
2021/12/29 01:29:26;;;;;;;2.17;1.65;;;5.80;99.90;;;;;;5139528;27;20074;-88
2021/12/29 01:31:52;;;;;;;5.25;2.58;;;5.70;99.90;;;;;;5139270;27;20471;-89
2021/12/29 01:34:18;;;;;;;0.77;0.77;;;5.80;99.90;;;;;;5139399;27;20445;-83
2021/12/29 01:36:44;;;;;;;1.88;1.42;;;5.70;99.90;;;;;;5139762;27;20038;-88
2021/12/29 01:39:16;;;;;;;1.35;0.73;;;5.70;99.90;;;;;;5139128;27;20068;-88
2021/12/29 01:41:43;;;;;;;0.95;0.70;;;5.70;99.90;;;;;;5157877;27;20529;-88
2021/12/29 01:44:10;;;;;;;2.40;1.83;;;5.70;99.90;;;;;;5122196;27;20054;-88
2021/12/29 01:46:37;;;;;;;6.68;6.22;;;5.80;99.90;;;;;;5140361;27;20051;-88
2021/12/29 01:49:03;;;;;;;1.83;1.70;;;5.80;99.90;;;;;;5159750;27;20054;-89
2021/12/29 01:51:30;;;;;;;0.50;0.50;;;5.80;99.90;;;;;;5139540;27;20054;-87
2021/12/29 01:54:14;;;;;;;4.47;0.68;;;5.80;99.90;;;;;;5157023;27;20047;-84
2021/12/29 01:56:44;;;;;;;1.85;1.75;;;5.80;99.90;;;;;;5134504;27;20043;-85
2021/12/29 01:59:10;;;;;;;0.98;0.93;;;5.80;99.90;;;;;;5118085;27;20058;-87
2021/12/29 02:01:35;;;;;;;0.73;0.73;;;5.80;99.90;;;;;;5118209;27;20051;-84
2021/12/29 02:04:01;;;;;;;0.65;0.65;;;5.80;99.90;;;;;;5076974;28;20090;-84
2021/12/29 02:06:27;;;;;;;7.07;5.65;;;5.80;99.90;;;;;;5077305;28;20043;-86
2021/12/29 02:08:55;;;;;;;0.77;0.75;;;5.90;99.90;;;;;;5095212;28;20044;-84
2021/12/29 02:11:30;;;;;;;0.20;0.20;;;5.80;99.90;;;;;;5076921;28;20151;-84
2021/12/29 02:14:00;;;;;;;7.50;2.00;;;5.90;99.90;;;;;;5076772;28;20052;-85
2021/12/29 02:16:27;;;;;;;0.63;0.63;;;5.80;99.90;;;;;;5076875;28;20130;-87
2021/12/29 02:18:54;;;;;;;4.22;1.35;;;5.90;99.90;;;;;;5076875;28;20052;-84
2021/12/29 02:21:26;;;;;;;3.40;1.90;;;5.90;99.90;;;;;;5076817;28;20046;-87
2021/12/29 02:26:26;;;;;;;3.25;2.50;;;5.90;99.90;;;;;;5094698;28;20056;-86
2021/12/29 02:28:55;;;;;;;4.30;4.10;;;5.90;99.90;;;;;;5076730;28;20048;-83
2021/12/29 02:31:22;;;;;;;1.17;0.85;;;5.90;99.90;;;;;;5076562;28;20134;-82
2021/12/29 02:33:47;;;;;;;2.92;1.10;;;6.00;99.90;;;;;;5074604;28;20048;-79
2021/12/29 02:36:16;;;;;;;7.20;2.97;;;6.00;99.90;;;;;;5076590;28;20471;-88
2021/12/29 02:38:47;;;;;;;1.50;1.30;;;6.00;99.90;;;;;;5076736;28;20048;-86
2021/12/29 02:41:13;;;;;;;1.65;0.98;;;6.10;99.90;;;;;;5076887;28;20484;-89
2021/12/29 02:43:40;;;;;;;0.75;0.75;;;6.10;99.90;;;;;;5076851;28;20040;-88
2021/12/29 02:46:11;;;;;;;0.43;0.43;;;6.10;99.90;;;;;;5076510;28;20073;-87
2021/12/29 02:48:47;;;;;;;1.95;1.27;;;6.10;99.90;;;;;;5094645;28;20048;-87
2021/12/29 02:51:13;;;;;;;2.55;1.55;;;6.10;99.90;;;;;;5076427;28;20048;-88
2021/12/29 02:53:39;;;;;;;7.35;2.10;;;6.20;99.90;;;;;;5076683;28;20186;-87
2021/12/29 02:56:05;;;;;;;3.38;2.55;;;6.20;99.90;;;;;;5084872;28;20475;-86
2021/12/29 02:58:32;;;;;;;3.63;2.30;;;6.20;99.90;;;;;;5096997;28;20051;-89
2021/12/29 03:01:01;;;;;;;2.75;2.65;;;6.20;99.90;;;;;;5115159;28;20086;-90
2021/12/29 03:03:30;;;;;;;3.05;1.25;;;6.30;99.90;;;;;;5130078;27;20110;-89
2021/12/29 03:05:56;;;;;;;2.30;2.20;;;6.20;99.90;;;;;;5135196;27;20039;-88
2021/12/29 03:08:23;;;;;;;0.17;0.17;;;6.30;99.90;;;;;;5135126;27;20108;-85
2021/12/29 03:10:52;;;;;;;6.18;5.55;;;6.20;99.90;;;;;;5116800;27;20099;-85
2021/12/29 03:13:28;;;;;;;3.00;1.40;;;6.30;99.90;;;;;;5116909;27;20066;-85
2021/12/29 03:15:54;;;;;;;4.05;3.63;;;6.40;99.90;;;;;;5099620;27;20035;-87
2021/12/29 03:18:20;;;;;;;3.50;1.65;;;6.40;99.90;;;;;;5116658;27;20093;-85
2021/12/29 03:20:47;;;;;;;0.75;0.75;;;6.40;99.90;;;;;;5116851;27;20067;-87
2021/12/29 03:23:14;;;;;;;1.60;1.13;;;6.40;99.90;;;;;;5134678;27;20578;-87
2021/12/29 03:25:39;;;;;;;5.63;0.98;;;6.40;99.90;;;;;;5115882;28;20445;-85
2021/12/29 03:28:06;;;;;;;4.38;4.20;;;6.40;99.90;;;;;;5116223;27;20035;-88
2021/12/29 03:30:38;;;;;;;0.43;0.43;;;6.40;99.90;;;;;;5116443;27;20110;-88
2021/12/29 03:33:05;;;;;;;3.15;2.85;;;6.40;99.90;;;;;;5112915;28;20044;-89
2021/12/29 03:35:40;;;;;;;5.10;1.10;;;6.40;99.90;;;;;;5096059;28;20510;-88
2021/12/29 03:38:09;;;;;;;8.75;0.63;;;6.40;99.90;;;;;;5096145;28;20488;-86
2021/12/29 03:40:37;;;;;;;0.77;0.77;;;6.40;99.90;;;;;;5080725;28;20082;-90
2021/12/29 03:43:08;;;;;;;2.47;1.02;;;6.40;99.90;;;;;;5097512;28;20083;-85
2021/12/29 03:45:35;;;;;;;4.00;2.03;;;6.40;99.90;;;;;;5097004;28;20054;-84
2021/12/29 03:48:00;;;;;;;7.60;0.63;;;6.40;99.90;;;;;;5096068;28;20056;-87
2021/12/29 03:50:26;;;;;;;0.93;0.85;;;6.40;99.90;;;;;;5095669;28;20043;-90
2021/12/29 03:52:52;;;;;;;1.75;0.85;;;6.50;99.90;;;;;;5096256;28;20048;-86
2021/12/29 03:55:18;;;;;;;1.30;0.70;;;6.50;99.90;;;;;;5095478;28;20055;-81
2021/12/29 03:57:44;;;;;;;0.93;0.88;;;6.50;99.90;;;;;;5096162;28;20153;-89
2021/12/29 04:00:14;;;;;;;2.35;0.50;;;6.60;99.90;;;;;;5095938;28;20503;-88
2021/12/29 04:02:40;;;;;;;3.83;3.35;;;6.50;99.90;;;;;;5100642;28;20044;-91
2021/12/29 04:05:08;;;;;;;1.63;1.50;;;6.60;99.90;;;;;;5096037;28;20055;-89
2021/12/29 04:07:34;;;;;;;1.33;1.15;;;6.60;99.90;;;;;;5079181;28;20400;-86
2021/12/29 04:09:59;;;;;;;2.50;1.90;;;6.50;99.90;;;;;;5095528;28;20046;-87
2021/12/29 04:12:25;;;;;;;1.65;1.65;;;6.60;99.90;;;;;;5096008;28;20035;-88
2021/12/29 04:14:51;;;;;;;4.85;4.50;;;6.60;99.90;;;;;;5095471;28;20381;-87
2021/12/29 04:17:24;;;;;;;1.13;0.57;;;6.60;99.90;;;;;;5095577;28;20101;-88
2021/12/29 04:22:33;;;;;;;5.63;3.03;;;6.60;99.90;;;;;;5113745;28;20141;-90
2021/12/29 04:24:59;;;;;;;6.82;2.97;;;6.70;99.90;;;;;;5113291;28;20039;-85
2021/12/29 04:27:26;;;;;;;2.50;2.30;;;6.70;99.90;;;;;;5095155;28;20118;-87
2021/12/29 04:29:51;;;;;;;2.10;1.55;;;6.70;99.90;;;;;;5095433;28;20050;-89
2021/12/29 04:32:18;;;;;;;2.45;2.08;;;6.70;99.90;;;;;;5079651;28;20126;-89
2021/12/29 04:34:44;;;;;;;4.88;1.98;;;6.70;99.90;;;;;;5095813;28;20044;-88
2021/12/29 04:37:10;;;;;;;9.63;4.07;;;6.70;99.90;;;;;;5096206;28;20115;-87
2021/12/29 04:39:36;;;;;;;3.05;2.47;;;6.70;99.90;;;;;;5100255;28;20137;-84
2021/12/29 04:42:02;;;;;;;6.00;1.58;;;6.90;99.90;;;;;;5099419;28;20052;-87
2021/12/29 04:44:27;;;;;;;6.30;4.07;;;6.80;99.90;;;;;;5099519;28;20043;-87
2021/12/29 04:46:55;;;;;;;4.82;2.50;;;6.80;99.90;;;;;;5082261;28;20177;-87
2021/12/29 04:49:26;;;;;;;3.92;2.45;;;6.80;99.90;;;;;;5117380;28;20103;-86
2021/12/29 04:51:57;;;;;;;6.65;5.10;;;6.80;99.90;;;;;;5098935;28;20055;-86
2021/12/29 04:54:23;;;;;;;2.90;2.63;;;6.80;99.90;;;;;;5099163;28;20055;-85
2021/12/29 04:56:48;;;;;;;2.53;1.80;;;6.80;99.90;;;;;;5098777;28;20062;-83
2021/12/29 04:59:16;;;;;;;7.35;2.78;;;6.80;99.90;;;;;;5117580;28;20047;-86
2021/12/29 05:01:42;;;;;;;13.55;10.93;;;6.80;99.90;;;;;;5098893;28;20058;-86
2021/12/29 05:04:08;;;;;;;6.28;3.38;;;6.70;99.90;;;;;;5117263;28;20047;-87
2021/12/29 05:09:18;;;;;;;16.17;8.15;;;6.80;99.90;;;;;;5117649;28;20047;-86
2021/12/29 05:11:44;;;;;;;3.63;2.50;;;6.80;99.90;;;;;;5082037;28;20139;-90
2021/12/29 05:14:09;;;;;;;9.10;5.63;;;6.80;99.90;;;;;;5098956;28;20079;-89
2021/12/29 05:16:36;;;;;;;4.03;2.03;;;6.90;99.90;;;;;;5098767;28;20082;-88
2021/12/29 05:19:01;;;;;;;3.13;1.85;;;6.90;99.90;;;;;;5098608;28;20039;-87
2021/12/29 05:21:27;;;;;;;4.65;3.40;;;6.90;99.90;;;;;;5098950;28;20058;-88
2021/12/29 05:23:54;;;;;;;2.13;2.03;;;6.80;99.90;;;;;;5117195;28;20079;-90
2021/12/29 05:26:20;;;;;;;3.85;1.30;;;6.80;99.90;;;;;;5098907;28;20456;-90
2021/12/29 05:28:46;;;;;;;8.75;4.47;;;6.80;99.90;;;;;;5099043;28;20086;-90
2021/12/29 05:31:11;;;;;;;5.55;3.67;;;6.80;99.90;;;;;;5117256;28;20127;-88
2021/12/29 05:33:37;;;;;;;5.82;2.50;;;6.80;99.90;;;;;;5099727;28;20043;-90
2021/12/29 05:36:04;;;;;;;9.40;4.68;;;6.80;99.90;;;;;;5100101;28;20047;-89
2021/12/29 05:38:30;;;;;;;3.28;1.13;;;6.80;99.90;;;;;;5098548;28;20047;-89
2021/12/29 05:40:55;;;;;;;4.45;1.23;;;6.90;99.90;;;;;;5116734;28;20480;-88
2021/12/29 05:43:21;;;;;;;10.43;2.85;;;6.90;99.90;;;;;;5098437;28;20055;-87
2021/12/29 05:45:49;;;;;;;6.28;3.58;;;6.90;99.90;;;;;;5098160;28;20049;-87
2021/12/29 05:48:15;;;;;;;4.97;2.35;;;6.90;99.90;;;;;;5098560;28;20047;-90
2021/12/29 05:50:41;;;;;;;11.40;3.72;;;6.90;99.90;;;;;;5098426;28;20039;-89
2021/12/29 05:53:07;;;;;;;6.75;2.88;;;7.00;99.90;;;;;;5098151;28;20133;-83
2021/12/29 05:55:33;;;;;;;4.47;4.07;;;6.90;99.90;;;;;;5097688;28;20082;-84
2021/12/29 05:57:59;;;;;;;5.95;2.20;;;7.00;99.90;;;;;;5116497;28;20054;-82
2021/12/29 06:00:26;;;;;;;1.15;1.13;;;7.10;99.90;;;;;;5116371;28;20032;-83
2021/12/29 06:02:54;;;;;;;5.63;3.25;;;7.00;99.90;;;;;;5097912;28;20052;-87
2021/12/29 06:05:20;;;;;;;3.97;1.65;;;7.00;99.90;;;;;;5116321;28;20054;-86
2021/12/29 06:07:46;;;;;;;6.95;2.80;;;7.10;99.90;;;;;;5097954;28;20490;-88
2021/12/29 06:10:12;;;;;;;5.88;5.47;;;7.00;99.90;;;;;;5116129;28;20122;-87
2021/12/29 06:12:38;;;;;;;4.05;2.20;;;7.00;99.90;;;;;;5080889;28;20098;-87
2021/12/29 06:15:05;;;;;;;4.53;2.90;;;7.10;99.90;;;;;;5097551;28;20118;-87
2021/12/29 06:17:31;;;;;;;4.43;3.13;;;7.10;99.90;;;;;;5097721;28;20055;-87
2021/12/29 06:19:57;;;;;;;10.52;2.38;;;7.10;99.90;;;;;;5097640;28;20039;-85
2021/12/29 06:22:23;;;;;;;1.23;1.13;;;7.00;99.90;;;;;;5098002;28;20055;-85
2021/12/29 06:24:52;;;;;;;9.55;5.05;;;7.00;99.90;;;;;;5097904;28;20066;-89
2021/12/29 06:27:23;;;;;;;4.70;2.33;;;7.10;99.90;;;;;;5097617;28;20058;-86
2021/12/29 06:29:49;;;;;;;5.50;3.95;;;7.10;99.90;;;;;;5097081;28;20491;-86
2021/12/29 06:32:15;;;;;;;12.43;3.63;;;7.10;99.90;;;;;;5097677;28;20510;-87
2021/12/29 06:34:41;;;;;;;15.40;3.47;;;7.00;99.90;;;;;;5115586;28;20110;-88
2021/12/29 06:37:09;;;;;;;13.55;3.65;;;7.00;99.90;;;;;;5097215;28;20475;-90
2021/12/29 06:39:39;;;;;;;2.65;2.05;;;7.10;99.90;;;;;;5097282;28;20051;-89
2021/12/29 06:42:05;;;;;;;5.20;2.08;;;7.00;99.90;;;;;;5115237;28;20565;-87
2021/12/29 06:44:31;;;;;;;4.72;3.03;;;7.00;99.90;;;;;;5097614;28;20044;-90
2021/12/29 06:46:57;;;;;;;4.22;3.47;;;7.10;99.90;;;;;;5080263;28;20055;-89
2021/12/29 06:49:22;;;;;;;4.32;2.88;;;7.00;99.90;;;;;;5096966;28;20047;-89
2021/12/29 06:51:49;;;;;;;3.72;3.42;;;7.00;99.90;;;;;;5097415;28;20086;-83
2021/12/29 06:54:15;;;;;;;4.28;2.53;;;7.00;99.90;;;;;;5097463;28;20161;-87
2021/12/29 06:56:41;;;;;;;5.93;2.65;;;7.00;99.90;;;;;;5096748;28;20531;-88
2021/12/29 06:59:06;;;;;;;5.80;1.83;;;7.00;99.90;;;;;;5097005;28;20132;-88
2021/12/29 07:01:32;;;;;;;4.25;1.98;;;7.00;99.90;;;;;;5096174;28;20148;-89
2021/12/29 07:03:58;;;;;;;1.83;1.20;;;7.00;99.90;;;;;;5096698;28;20047;-89
2021/12/29 07:06:24;;;;;;;6.45;1.65;;;7.00;99.90;;;;;;5097113;28;20070;-89
2021/12/29 07:08:50;;;;;;;2.03;1.90;;;7.00;99.90;;;;;;5096985;28;20472;-88
2021/12/29 07:11:15;;;;;;;8.38;5.10;;;7.10;99.90;;;;;;5097075;28;20126;-89
2021/12/29 07:13:42;;;;;;;4.28;0.90;;;7.00;99.90;;;;;;5097053;28;20096;-87
2021/12/29 07:16:08;;;;;;;3.25;1.70;;;7.00;99.90;;;;;;5096944;28;20060;-90
2021/12/29 07:18:34;;;;;;;3.17;2.40;;;7.00;99.90;;;;;;5096901;28;20043;-89
2021/12/29 07:21:00;;;;;;;6.03;1.40;;;7.00;99.90;;;;;;5096796;28;20510;-88
2021/12/29 07:23:26;;;;;;;2.60;2.40;;;6.90;99.90;;;;;;5097030;28;20498;-89
2021/12/29 07:25:51;;;;;;;4.63;4.32;;;7.00;99.90;;;;;;5114931;28;20387;-90
2021/12/29 07:28:17;;;;;;;3.58;2.80;;;7.00;99.90;;;;;;5114895;28;20128;-90
2021/12/29 07:30:43;;;;;;;7.60;1.98;;;7.00;99.90;;;;;;5096842;28;20036;-91
2021/12/29 07:33:09;;;;;;;4.57;4.28;;;7.00;99.90;;;;;;5097461;28;20101;-90
2021/12/29 07:35:34;;;;;;;0.70;0.70;;;7.00;99.90;;;;;;5097048;28;20130;-90
2021/12/29 07:38:00;;;;;;;3.17;2.97;;;7.10;99.90;;;;;;5096660;28;20052;-90
2021/12/29 07:40:26;;;;;;;2.63;2.13;;;7.00;99.90;;;;;;5096599;28;20044;-89
2021/12/29 07:42:51;;;;;;;5.10;3.00;;;7.00;99.90;;;;;;5096343;28;20491;-89
2021/12/29 07:45:18;;;;;;;2.22;2.13;;;6.90;99.90;;;;;;5096534;28;20047;-86
2021/12/29 07:47:47;;;;;;;3.53;3.17;;;7.00;99.90;;;;;;5079657;28;20134;-89
2021/12/29 07:50:15;;;;;;;11.00;2.78;;;7.00;99.90;;;;;;5096171;28;20047;-87
2021/12/29 07:52:41;;;;;;;3.60;3.30;;;7.00;99.90;;;;;;5096057;28;20044;-88
2021/12/29 07:55:07;;;;;;;2.47;1.30;;;7.00;99.90;;;;;;5096101;28;20055;-88
2021/12/29 07:57:33;;;;;;;1.33;1.25;;;7.10;99.90;;;;;;5079040;28;20067;-88
2021/12/29 07:59:59;;;;;;;4.82;3.13;;;7.10;99.90;;;;;;5096162;28;20047;-89
2021/12/29 08:02:27;;;;;;;4.80;3.15;;;7.10;99.90;;;;;;5096119;28;20054;-90
2021/12/29 08:04:58;;;;;;;2.42;1.17;;;7.10;99.90;;;;;;5113975;28;20031;-89
2021/12/29 08:07:25;;;;;;;3.33;1.80;;;7.10;99.90;;;;;;5096259;28;20086;-89
2021/12/29 08:09:52;;;;;;;2.67;1.38;;;7.10;99.90;;;;;;5096272;28;20079;-89
2021/12/29 08:12:17;;;;;;;3.10;2.83;;;7.10;99.90;;;;;;5115671;28;20126;-90
2021/12/29 08:14:45;;;;;;;4.90;4.47;;;7.10;99.90;;;;;;5100217;28;20083;-89
2021/12/29 08:17:11;;;;;;;3.15;2.95;;;7.10;99.90;;;;;;5099945;28;20047;-89
2021/12/29 08:19:38;;;;;;;0.85;0.57;;;7.10;99.90;;;;;;5100148;28;20130;-83
2021/12/29 08:22:03;;;;;;;3.78;2.45;;;7.10;99.90;;;;;;5099821;28;20052;-90
2021/12/29 08:24:29;;;;;;;1.45;1.25;;;7.20;99.90;;;;;;5100074;28;20044;-90
2021/12/29 08:26:55;;;;;;;1.50;1.40;;;7.10;99.90;;;;;;5100205;28;20051;-90
2021/12/29 08:29:20;;;;;;;6.25;3.90;;;7.20;99.90;;;;;;5100429;28;20042;-90
2021/12/29 08:31:46;;;;;;;0.63;0.63;;;7.10;99.90;;;;;;5100982;28;20047;-90
2021/12/29 08:34:12;;;;;;;1.33;1.00;;;7.20;99.90;;;;;;5100209;28;20051;-90
2021/12/29 08:36:37;;;;;;;2.85;2.13;;;7.20;99.90;;;;;;5099975;28;20047;-87
2021/12/29 08:39:04;;;;;;;6.05;2.42;;;7.20;99.90;;;;;;5099334;28;20400;-88
2021/12/29 08:41:30;;;;;;;1.60;1.50;;;7.20;99.90;;;;;;5098934;28;20054;-90
2021/12/29 08:43:55;;;;;;;2.05;1.95;;;7.20;99.90;;;;;;5099544;28;20048;-89
2021/12/29 08:46:22;;;;;;;2.80;2.53;;;7.20;99.90;;;;;;5099741;28;20047;-89
2021/12/29 08:48:49;;;;;;;11.32;5.30;;;7.20;99.90;;;;;;5099644;28;20051;-79
2021/12/29 08:51:17;;;;;;;2.75;1.35;;;7.20;99.90;;;;;;5099903;28;20044;-89
2021/12/29 08:53:43;;;;;;;7.60;2.67;;;7.20;99.90;;;;;;5099072;28;20381;-90
2021/12/29 08:56:09;;;;;;;10.23;2.60;;;7.20;99.90;;;;;;5099217;28;20055;-89
2021/12/29 08:58:34;;;;;;;2.33;1.15;;;7.30;99.90;;;;;;5099516;28;20563;-89
2021/12/29 09:01:00;;;;;;;15.10;2.47;;;7.30;99.90;;;;;;5117717;28;20104;-89
2021/12/29 09:03:26;;;;;;;6.13;4.88;;;7.30;99.90;;;;;;5099382;28;20078;-89
2021/12/29 09:05:52;;;;;;;7.50;3.55;;;7.30;99.90;;;;;;5098914;28;20047;-88
2021/12/29 09:08:19;;;;;;;2.10;1.75;;;7.40;99.90;;;;;;5117167;28;20108;-81
2021/12/29 09:10:45;;;;;;;5.38;2.30;;;7.30;99.90;;;;;;5099452;28;20074;-90
2021/12/29 09:13:12;;;;;;;4.57;1.75;;;7.30;99.90;;;;;;5099086;28;20144;-90
2021/12/29 09:15:38;;;;;;;1.50;1.50;;;7.40;99.90;;;;;;5099302;28;20109;-89
2021/12/29 09:18:05;;;;;;;19.55;3.33;;;7.40;99.90;;;;;;5098986;28;20495;-90
2021/12/29 09:20:33;;;;;;;10.65;4.78;;;7.30;99.90;;;;;;5099075;28;20051;-84
2021/12/29 09:23:05;;;;;;;8.73;5.53;;;7.30;99.90;;;;;;5099038;28;20064;-90
2021/12/29 09:25:32;;;;;;;36.63;12.35;;;7.40;99.90;;;;;;5099696;28;20048;-89
2021/12/29 09:27:58;;;;;;;11.85;6.10;;;7.30;99.90;;;;;;5100121;28;20135;-89
2021/12/29 09:30:27;;;;;;;13.90;7.03;;;7.30;99.90;;;;;;5100543;28;20067;-88
2021/12/29 09:32:53;;;;;;;4.80;4.47;;;7.50;99.90;;;;;;5099383;28;20090;-91
2021/12/29 09:35:20;;;;;;;32.92;15.45;;;7.40;99.90;;;;;;5099871;28;20051;-89
2021/12/29 09:37:47;;;;;;;18.92;10.65;;;7.40;99.90;;;;;;5099810;28;20083;-88
2021/12/29 09:40:15;;;;;;;3.45;3.25;;;7.40;99.90;;;;;;5099613;28;20079;-92
2021/12/29 09:42:41;;;;;;;1.67;1.58;;;7.50;99.90;;;;;;5098968;28;20048;-90
2021/12/29 09:45:08;;;;;;;5.90;4.60;;;7.50;99.90;;;;;;5098728;28;20044;-91
2021/12/29 09:47:35;;;;;;;3.53;2.70;;;7.50;99.90;;;;;;5098665;28;20052;-84
2021/12/29 09:50:06;;;;;;;1.95;1.83;;;7.50;99.90;;;;;;5098964;28;20135;-89
2021/12/29 09:52:33;;;;;;;5.35;4.88;;;7.50;99.90;;;;;;5098636;28;20073;-87
2021/12/29 09:55:07;;;;;;;4.25;2.85;;;7.60;99.90;;;;;;5081997;28;20047;-92
2021/12/29 09:57:34;;;;;;;10.30;2.47;;;7.60;99.90;;;;;;5099247;28;20052;-91
2021/12/29 10:00:01;;;;;;;3.15;2.92;;;7.60;99.90;;;;;;5098661;28;20051;-88
2021/12/29 10:02:27;;;;;;;3.25;0.85;;;7.60;99.90;;;;;;5116836;28;20487;-92
2021/12/29 10:04:56;;;;;;;3.97;3.13;;;7.60;99.90;;;;;;5098860;28;20385;-91
2021/12/29 10:07:22;;;;;;;1.25;1.20;;;7.60;99.90;;;;;;5098624;28;20047;-91
2021/12/29 10:09:48;;;;;;;7.00;2.88;;;7.70;99.90;;;;;;5098654;28;20062;-91
2021/12/29 10:12:19;;;;;;;0.85;0.85;;;7.70;99.90;;;;;;5098298;28;20047;-84
2021/12/29 10:14:56;;;;;;;4.13;2.63;;;7.70;99.90;;;;;;5098075;28;20395;-92
2021/12/29 10:17:27;;;;;;;0.98;0.98;;;7.70;99.90;;;;;;5098171;28;20050;-92
2021/12/29 10:20:05;;;;;;;7.38;2.78;;;7.70;99.90;;;;;;5082008;28;20047;-90
2021/12/29 10:22:31;;;;;;;2.40;2.05;;;7.70;99.90;;;;;;5098111;28;20051;-90
2021/12/29 10:25:11;;;;;;;4.10;3.40;;;7.70;99.90;;;;;;5098158;28;20035;-90
2021/12/29 10:27:39;;;;;;;5.53;1.17;;;7.70;99.90;;;;;;5116135;28;20395;-89
2021/12/29 10:30:25;;;;;;;2.33;2.22;;;7.80;99.90;;;;;;5097616;28;20058;-88
2021/12/29 10:32:55;;;;;;;1.17;0.77;;;7.80;99.90;;;;;;5097708;28;20043;-89
2021/12/29 10:35:23;;;;;;;0.52;0.52;;;7.90;99.90;;;;;;5114398;28;20096;-90
2021/12/29 10:37:52;;;;;;;2.72;1.80;;;7.90;99.90;;;;;;5097419;28;20492;-89
2021/12/29 10:40:30;;;;;;;1.17;1.17;;;7.90;99.90;;;;;;5097892;28;20123;-90
2021/12/29 10:42:58;;;;;;;1.17;1.17;;;7.90;99.90;;;;;;5097794;28;20484;-90
2021/12/29 10:45:37;;;;;;;0.40;0.40;;;8.00;99.90;;;;;;5097379;28;20040;-88
2021/12/29 10:48:20;;;;;;;6.65;2.65;;;7.90;99.90;;;;;;5096658;28;20054;-88
2021/12/29 10:51:03;;;;;;;6.72;2.15;;;8.00;99.90;;;;;;5115371;28;20043;-90
2021/12/29 10:53:31;;;;;;;1.35;0.80;;;7.90;99.90;;;;;;5114960;28;20051;-87
2021/12/29 10:55:57;;;;;;;8.77;2.50;;;7.90;99.90;;;;;;5096600;28;20544;-88
2021/12/29 10:58:26;;;;;;;4.35;3.10;;;7.90;99.90;;;;;;5096807;28;20048;-84
2021/12/29 11:01:06;;;;;;;1.30;1.30;;;8.00;99.90;;;;;;5096898;28;20044;-93
2021/12/29 11:03:33;;;;;;;14.32;2.03;;;7.90;99.90;;;;;;5115889;28;20055;-92
2021/12/29 11:06:02;;;;;;;5.50;1.58;;;7.90;99.90;;;;;;5115236;28;20484;-93
2021/12/29 11:08:29;;;;;;;4.10;0.90;;;7.90;99.90;;;;;;5097464;28;20553;-90
2021/12/29 11:11:02;;;;;;;3.85;0.90;;;7.90;99.90;;;;;;5097313;28;20103;-90
2021/12/29 11:13:29;;;;;;;1.40;1.30;;;7.90;99.90;;;;;;5096605;28;20106;-85
2021/12/29 11:15:56;;;;;;;1.38;1.05;;;7.90;99.90;;;;;;5096868;28;20043;-91
2021/12/29 11:18:23;;;;;;;0.43;0.43;;;7.90;99.90;;;;;;5115481;28;20031;-88
2021/12/29 11:20:58;;;;;;;3.22;1.15;;;7.90;99.90;;;;;;5096923;28;20051;-81
2021/12/29 11:23:23;;;;;;;2.60;1.85;;;7.80;99.90;;;;;;5098787;28;20195;-89
2021/12/29 11:25:51;;;;;;;2.92;2.70;;;7.90;99.90;;;;;;5098960;28;20084;-89
2021/12/29 11:28:28;;;;;;;1.65;0.82;;;7.90;99.90;;;;;;5098068;28;20051;-93
2021/12/29 11:30:56;;;;;;;4.00;1.10;;;7.80;99.90;;;;;;5096704;28;20051;-87
2021/12/29 11:33:23;;;;;;;2.92;0.63;;;7.90;99.90;;;;;;5096798;28;20071;-86
2021/12/29 11:35:52;;;;;;;3.50;2.78;;;7.90;99.90;;;;;;5095959;28;20197;-87
2021/12/29 11:38:18;;;;;;;1.05;1.05;;;7.90;99.90;;;;;;5096716;28;20135;-82
2021/12/29 11:40:50;;;;;;;2.00;1.10;;;7.90;99.90;;;;;;5095937;28;20058;-88
2021/12/29 11:43:19;;;;;;;2.35;2.17;;;7.90;99.90;;;;;;5095856;28;20051;-91
2021/12/29 11:45:48;;;;;;;8.38;1.55;;;7.90;99.90;;;;;;5096037;28;20514;-88
2021/12/29 11:48:15;;;;;;;3.50;1.08;;;7.90;99.90;;;;;;5096018;28;20082;-90
2021/12/29 11:50:51;;;;;;;6.22;3.05;;;7.90;99.90;;;;;;5096314;28;20059;-91
2021/12/29 11:53:36;;;;;;;4.53;3.92;;;7.90;99.90;;;;;;5096595;28;20123;-88
2021/12/29 11:56:08;;;;;;;14.57;8.63;;;7.80;99.90;;;;;;5098159;28;20047;-89
2021/12/29 11:58:41;;;;;;;41.13;15.93;;;7.80;99.90;;;;;;5096857;28;20104;-85
2021/12/29 12:01:11;;;;;;;25.15;10.98;;;7.80;99.90;;;;;;5097156;28;20061;-92
2021/12/29 12:03:54;;;;;;;10.90;6.40;;;7.90;99.90;;;;;;5097791;28;20048;-89
2021/12/29 12:06:35;;;;;;;8.73;6.40;;;7.90;99.90;;;;;;5096398;28;20100;-88
2021/12/29 12:09:22;;;;;;;6.22;5.43;;;7.90;99.90;;;;;;5096814;28;20099;-92
2021/12/29 12:11:48;;;;;;;9.60;4.60;;;8.00;99.90;;;;;;5096789;28;20079;-92
2021/12/29 12:14:25;;;;;;;2.60;2.40;;;7.90;99.90;;;;;;5115110;28;20498;-91
2021/12/29 12:16:54;;;;;;;3.08;1.40;;;7.90;99.90;;;;;;5098429;28;20540;-92
2021/12/29 12:23:01;;;;;;;9.50;3.08;;;8.00;99.90;;;;;;5114014;28;20110;-91
2021/12/29 12:25:32;;;;;;;2.70;1.95;;;7.90;99.90;;;;;;5114659;28;20071;-91
2021/12/29 12:28:02;;;;;;;2.22;2.05;;;7.90;99.90;;;;;;5096689;28;20115;-90
2021/12/29 12:30:39;;;;;;;2.80;1.75;;;7.90;99.90;;;;;;5097276;28;20043;-90
2021/12/29 12:33:14;;;;;;;2.75;1.95;;;7.90;99.90;;;;;;5096012;28;20039;-92
2021/12/29 12:35:46;;;;;;;4.78;0.70;;;7.90;99.90;;;;;;5095524;28;20075;-93
2021/12/29 12:38:22;;;;;;;1.92;1.02;;;7.90;99.90;;;;;;5114363;28;20040;-83
2021/12/29 12:41:03;;;;;;;3.15;1.25;;;7.90;99.90;;;;;;5096845;28;20472;-90
2021/12/29 12:43:29;;;;;;;2.67;2.58;;;7.90;99.90;;;;;;5096460;28;20412;-90
2021/12/29 12:45:55;;;;;;;1.63;1.63;;;7.90;99.90;;;;;;5114529;28;20051;-90
2021/12/29 12:48:32;;;;;;;6.22;1.02;;;7.90;99.90;;;;;;5114485;28;20039;-87
2021/12/29 12:51:02;;;;;;;5.35;2.95;;;7.90;99.90;;;;;;5095897;28;20043;-88
2021/12/29 12:53:31;;;;;;;0.43;0.43;;;7.90;99.90;;;;;;5095290;28;20447;-87
2021/12/29 12:55:58;;;;;;;3.70;0.85;;;7.90;99.90;;;;;;5095683;28;20044;-90
2021/12/29 12:58:28;;;;;;;0.60;0.60;;;7.90;99.90;;;;;;5114801;28;20047;-88
2021/12/29 13:01:03;;;;;;;4.13;2.35;;;7.90;99.90;;;;;;5101480;28;20047;-90
2021/12/29 13:03:31;;;;;;;0.90;0.90;;;7.90;99.90;;;;;;5101153;28;20048;-88
2021/12/29 13:05:59;;;;;;;1.00;0.88;;;7.90;99.90;;;;;;5076736;28;20053;-89
2021/12/29 13:08:35;;;;;;;4.97;2.42;;;7.90;99.90;;;;;;5060612;28;20107;-90
2021/12/29 13:11:06;;;;;;;9.05;8.18;;;7.90;99.90;;;;;;5083592;28;20045;-87
2021/12/29 13:13:37;;;;;;;18.35;3.95;;;7.90;99.90;;;;;;5063860;28;20060;-89
2021/12/29 13:16:14;;;;;;;5.05;3.22;;;7.90;99.90;;;;;;5059059;28;20587;-89